Terminal Aerodrome Forecast
Issued by NWS

Home | Current Version | Previous Version | Text Only | Print | Product List | Glossary On
Versions: 1 2 3 4 5 6 7 8 9 10 11 12 13
688
FTUS46 KLOX 140539
TAFWJF
TAF
KWJF 140539Z 1406/1506 VRB05KT P6SM SKC
     FM141800 04010KT P6SM SCT250
     FM150000 04012G20KT P6SM SCT250=

USA.gov is the U.S. government's official web portal to all federal, state and local government web resources and services.